Crown Topaz — 3FAS9 — position and weather

sailwx.info

Track history (hours):
 
Tides and Currents Weather Stations Pressure Air Temp Water Temp Dewpoint Dewpoint Depression Visibility Wind Speed Wind Dir Waves Ship Positions

Crown Topaz

Last reported at 2014-Aug-30 17:33 UTC. Time now 2014-Aug-30 18:34 UTC.
Position N 38°52' W 025°26'.

Length 152 m; draft 6.5 m.

Type: Cargo ship. MMSI: 357144000.

Date/timePositionNaut miles runAvg speedWind from/ knotsBaromVisibWave heightAir tempDewpointWater temp
2014-Aug-30 17:33N 38°52' W 025°26'1818.4
2014-Aug-30 16:33N 38°60' W 025°04'1818.5
2014-Aug-30 15:33N 39°08' W 024°43'2019.2
2014-Aug-30 14:31N 39°18' W 024°21'1819.0
2014-Aug-30 13:33N 39°27' W 024°00'2218.8
2014-Aug-30 12:25N 39°38' W 023°36'2418.4
2014-Aug-30 11:05N 39°50' W 023°09'  
2014-Aug-27 21:15N 49°40' W 000°44'1217.6
2014-Aug-27 20:33N 49°36' W 000°26'1616.0
2014-Aug-27 19:33N 49°29' W 000°04'1212.2
2014-Aug-27 18:33N 49°26' E 000°14'9 1.2
2014-Aug-27 10:33N 49°29' E 000°28'1110.7
2014-Aug-27 09:33N 49°26' E 000°12'1110.7
2014-Aug-27 08:33N 49°29' W 000°04'1211.9
2014-Aug-27 07:33N 49°40' W 000°09'4719.2
2014-Aug-27 05:05N 50°27' W 000°03'1320.7
2014-Aug-27 04:29N 50°31' E 000°16'1920.5
2014-Aug-27 03:33N 50°38' E 000°44'2419.4
2014-Aug-27 02:18N 50°53' E 001°15'1316.9
2014-Aug-27 01:33N 51°02' E 001°28'1413.6
2014-Aug-27 00:34N 51°12' E 001°43'1717.1
2014-Aug-26 23:33N 51°25' E 002°01'1817.5
2014-Aug-26 22:33N 51°23' E 002°29'1515.0
2014-Aug-26 21:33N 51°22' E 002°53'1818.1
2014-Aug-26 20:33N 51°25' E 003°22'1313.1
2014-Aug-26 19:33N 51°24' E 003°43'1211.9
2014-Aug-26 18:33N 51°26' E 004°01'1111.1
2014-Aug-26 17:34N 51°20' E 004°16'4 3.7
2014-Aug-26 16:33N 51°17' E 004°20'2 2.0
2014-Aug-26 15:31N 51°16' E 004°23'0 0.0
2014-Aug-26 14:31N 51°16' E 004°23'0 0.0
2014-Aug-26 13:31N 51°16' E 004°23'0 0.0
2014-Aug-26 12:31N 51°16' E 004°23'0 0.0
2014-Aug-26 11:31N 51°16' E 004°23'0 0.0
2014-Aug-26 10:31N 51°16' E 004°23'0 0.0
2014-Aug-26 09:31N 51°16' E 004°23'0 0.0
2014-Aug-26 08:31N 51°16' E 004°23'0 0.0
2014-Aug-26 07:28N 51°16' E 004°23'0 0.0
2014-Aug-26 06:31N 51°16' E 004°23'0 0.0
2014-Aug-26 05:31N 51°16' E 004°23'0 0.0
2014-Aug-26 04:31N 51°16' E 004°23'0 0.0
2014-Aug-26 03:31N 51°16' E 004°23'0 0.0
2014-Aug-26 02:31N 51°16' E 004°23'0 0.0
2014-Aug-26 01:31N 51°16' E 004°23'0 0.0
2014-Aug-26 00:31N 51°16' E 004°23'0 0.0
2014-Aug-25 23:31N 51°16' E 004°23'0 0.0
2014-Aug-25 22:31N 51°16' E 004°23'0 0.0
2014-Aug-25 21:31N 51°16' E 004°23'0 0.0
2014-Aug-25 20:31N 51°16' E 004°23'0 0.0
2014-Aug-25 19:31N 51°16' E 004°23'0 0.0
2014-Aug-25 18:31N 51°16' E 004°23'0 0.0
2014-Aug-25 17:31N 51°16' E 004°23'0 0.0
2014-Aug-25 16:31N 51°16' E 004°23'0 0.0
2014-Aug-25 15:31N 51°16' E 004°23'0 0.0
2014-Aug-25 14:31N 51°16' E 004°23'0 0.0
2014-Aug-25 13:31N 51°16' E 004°23'0 0.0
2014-Aug-25 12:31N 51°16' E 004°23'0 0.0
2014-Aug-25 11:31N 51°16' E 004°23'0 0.1
2014-Aug-25 10:34N 51°16' E 004°23'2 2.0
2014-Aug-25 09:33N 51°17' E 004°20'2 2.4
2014-Aug-25 08:34N 51°18' E 004°17'8 8.3
2014-Aug-25 07:34N 51°22' E 004°05'7 7.4
2014-Aug-25 06:33N 51°21' E 003°53'1110.6
2014-Aug-25 05:33N 51°26' E 003°39'1111.2
2014-Aug-25 04:33N 51°24' E 003°21'1615.9
2014-Aug-25 03:33N 51°22' E 002°56'1111.4
2014-Aug-25 02:33N 51°22' E 002°37'1210.2
2014-Aug-25 01:23N 51°19' E 002°19'1011.6
2014-Aug-25 00:34N 51°14' E 002°05'1212.2
2014-Aug-24 23:33N 51°09' E 001°48'1413.6
2014-Aug-24 22:33N 50°59' E 001°33'3515.0
2014-Aug-24 20:15N 50°32' E 000°59'1116.2
2014-Aug-24 19:34N 50°28' E 000°42'4514.8
2014-Aug-24 16:30N 50°29' W 000°29'5 5.0
2014-Aug-24 15:27N 50°32' W 000°36'1 1.1
2014-Aug-24 14:33N 50°32' W 000°35'1 1.5
2014-Aug-24 13:33N 50°32' W 000°32'1 1.5
2014-Aug-24 12:33N 50°32' W 000°30'3 2.5
2014-Aug-24 11:32N 50°32' W 000°34'1313.0
2014-Aug-24 10:33N 50°38' W 000°51'1110.8
2014-Aug-24 09:33N 50°45' W 001°05'4 3.6
2014-Aug-24 08:32N 50°49' W 001°06'0 0.0
2014-Aug-24 07:32N 50°49' W 001°06'0 0.0
2014-Aug-24 06:32N 50°49' W 001°06'0 0.0
2014-Aug-24 05:32N 50°49' W 001°06'0 0.0
2014-Aug-24 04:32N 50°49' W 001°06'0 0.0
2014-Aug-24 03:32N 50°49' W 001°06'0 0.0
2014-Aug-24 02:32N 50°49' W 001°06'0 0.0
2014-Aug-24 01:32N 50°49' W 001°06'0 0.0
2014-Aug-24 00:32N 50°49' W 001°06'0 0.0
2014-Aug-23 23:32N 50°49' W 001°06'0 0.0
2014-Aug-23 22:32N 50°49' W 001°06'0 0.0
2014-Aug-23 21:32N 50°49' W 001°06'0 0.0
2014-Aug-23 20:32N 50°49' W 001°06'0 0.0
2014-Aug-23 19:32N 50°49' W 001°06'  
Track history (hours):
 
Tides and Currents Weather Stations Pressure Air Temp Water Temp Dewpoint Dewpoint Depression Visibility Wind Speed Wind Dir Waves Ship Positions

Crown Topaz

Last reported at 2014-Aug-30 17:33 UTC. Time now 2014-Aug-30 18:34 UTC.
Position N 38°52' W 025°26'.

Length 152 m; draft 6.5 m.

Type: Cargo ship. MMSI: 357144000.

Date/timePositionNaut miles runAvg speedWind from/ knotsBaromVisibWave heightAir tempDewpointWater temp
2014-Aug-30 17:33N 38°52' W 025°26'1818.4
2014-Aug-30 16:33N 38°60' W 025°04'1818.5
2014-Aug-30 15:33N 39°08' W 024°43'2019.2
2014-Aug-30 14:31N 39°18' W 024°21'1819.0
2014-Aug-30 13:33N 39°27' W 024°00'2218.8
2014-Aug-30 12:25N 39°38' W 023°36'2418.4
2014-Aug-30 11:05N 39°50' W 023°09'  
2014-Aug-27 21:15N 49°40' W 000°44'1217.6
2014-Aug-27 20:33N 49°36' W 000°26'1616.0
2014-Aug-27 19:33N 49°29' W 000°04'1212.2
2014-Aug-27 18:33N 49°26' E 000°14'9 1.2
2014-Aug-27 10:33N 49°29' E 000°28'1110.7
2014-Aug-27 09:33N 49°26' E 000°12'1110.7
2014-Aug-27 08:33N 49°29' W 000°04'1211.9
2014-Aug-27 07:33N 49°40' W 000°09'4719.2
2014-Aug-27 05:05N 50°27' W 000°03'1320.7
2014-Aug-27 04:29N 50°31' E 000°16'1920.5
2014-Aug-27 03:33N 50°38' E 000°44'2419.4
2014-Aug-27 02:18N 50°53' E 001°15'1316.9
2014-Aug-27 01:33N 51°02' E 001°28'1413.6
2014-Aug-27 00:34N 51°12' E 001°43'1717.1
2014-Aug-26 23:33N 51°25' E 002°01'1817.5
2014-Aug-26 22:33N 51°23' E 002°29'1515.0
2014-Aug-26 21:33N 51°22' E 002°53'1818.1
2014-Aug-26 20:33N 51°25' E 003°22'1313.1
2014-Aug-26 19:33N 51°24' E 003°43'1211.9
2014-Aug-26 18:33N 51°26' E 004°01'1111.1
2014-Aug-26 17:34N 51°20' E 004°16'4 3.7
2014-Aug-26 16:33N 51°17' E 004°20'2 2.0
2014-Aug-26 15:31N 51°16' E 004°23'0 0.0
2014-Aug-26 14:31N 51°16' E 004°23'0 0.0
2014-Aug-26 13:31N 51°16' E 004°23'0 0.0
2014-Aug-26 12:31N 51°16' E 004°23'0 0.0
2014-Aug-26 11:31N 51°16' E 004°23'0 0.0
2014-Aug-26 10:31N 51°16' E 004°23'0 0.0
2014-Aug-26 09:31N 51°16' E 004°23'0 0.0
2014-Aug-26 08:31N 51°16' E 004°23'0 0.0
2014-Aug-26 07:28N 51°16' E 004°23'0 0.0
2014-Aug-26 06:31N 51°16' E 004°23'0 0.0
2014-Aug-26 05:31N 51°16' E 004°23'0 0.0
2014-Aug-26 04:31N 51°16' E 004°23'0 0.0
2014-Aug-26 03:31N 51°16' E 004°23'0 0.0
2014-Aug-26 02:31N 51°16' E 004°23'0 0.0
2014-Aug-26 01:31N 51°16' E 004°23'0 0.0
2014-Aug-26 00:31N 51°16' E 004°23'0 0.0
2014-Aug-25 23:31N 51°16' E 004°23'0 0.0
2014-Aug-25 22:31N 51°16' E 004°23'0 0.0
2014-Aug-25 21:31N 51°16' E 004°23'0 0.0
2014-Aug-25 20:31N 51°16' E 004°23'0 0.0
2014-Aug-25 19:31N 51°16' E 004°23'0 0.0
2014-Aug-25 18:31N 51°16' E 004°23'0 0.0
2014-Aug-25 17:31N 51°16' E 004°23'0 0.0
2014-Aug-25 16:31N 51°16' E 004°23'0 0.0
2014-Aug-25 15:31N 51°16' E 004°23'0 0.0
2014-Aug-25 14:31N 51°16' E 004°23'0 0.0
2014-Aug-25 13:31N 51°16' E 004°23'0 0.0
2014-Aug-25 12:31N 51°16' E 004°23'0 0.0
2014-Aug-25 11:31N 51°16' E 004°23'0 0.1
2014-Aug-25 10:34N 51°16' E 004°23'2 2.0
2014-Aug-25 09:33N 51°17' E 004°20'2 2.4
2014-Aug-25 08:34N 51°18' E 004°17'8 8.3
2014-Aug-25 07:34N 51°22' E 004°05'7 7.4
2014-Aug-25 06:33N 51°21' E 003°53'1110.6
2014-Aug-25 05:33N 51°26' E 003°39'1111.2
2014-Aug-25 04:33N 51°24' E 003°21'1615.9
2014-Aug-25 03:33N 51°22' E 002°56'1111.4
2014-Aug-25 02:33N 51°22' E 002°37'1210.2
2014-Aug-25 01:23N 51°19' E 002°19'1011.6
2014-Aug-25 00:34N 51°14' E 002°05'1212.2
2014-Aug-24 23:33N 51°09' E 001°48'1413.6
2014-Aug-24 22:33N 50°59' E 001°33'3515.0
2014-Aug-24 20:15N 50°32' E 000°59'1116.2
2014-Aug-24 19:34N 50°28' E 000°42'4514.8
2014-Aug-24 16:30N 50°29' W 000°29'5 5.0
2014-Aug-24 15:27N 50°32' W 000°36'1 1.1
2014-Aug-24 14:33N 50°32' W 000°35'1 1.5
2014-Aug-24 13:33N 50°32' W 000°32'1 1.5
2014-Aug-24 12:33N 50°32' W 000°30'3 2.5
2014-Aug-24 11:32N 50°32' W 000°34'1313.0
2014-Aug-24 10:33N 50°38' W 000°51'1110.8
2014-Aug-24 09:33N 50°45' W 001°05'4 3.6
2014-Aug-24 08:32N 50°49' W 001°06'0 0.0
2014-Aug-24 07:32N 50°49' W 001°06'0 0.0
2014-Aug-24 06:32N 50°49' W 001°06'0 0.0
2014-Aug-24 05:32N 50°49' W 001°06'0 0.0
2014-Aug-24 04:32N 50°49' W 001°06'0 0.0
2014-Aug-24 03:32N 50°49' W 001°06'0 0.0
2014-Aug-24 02:32N 50°49' W 001°06'0 0.0
2014-Aug-24 01:32N 50°49' W 001°06'0 0.0
2014-Aug-24 00:32N 50°49' W 001°06'0 0.0
2014-Aug-23 23:32N 50°49' W 001°06'0 0.0
2014-Aug-23 22:32N 50°49' W 001°06'0 0.0
2014-Aug-23 21:32N 50°49' W 001°06'0 0.0
2014-Aug-23 20:32N 50°49' W 001°06'0 0.0
2014-Aug-23 19:32N 50°49' W 001°06'  

Dump ship's entire track history